CheckWX is a tool to help pilots better visualize weather data.  It is not intended as a substitute for an official pre-flight weather briefing.

07:27:54 UTC

KEKN TAF
Elkins-Randolph Co-Jennings Randolph Field Airport
Elkins, West Virginia, USA
KEKN 210526Z 2106/2206 00000KT 1/4SM FG VV002 FM211300 VRB03KT 4SM BR SCT004 FM211500 16010KT P6SM SCT250 FM220400 17007KT 5SM BR OVC035

Oct-21@
06:00 UTC

Oct-21 @ 06:00 UTC

Oct-21@
13:00 UTC

Oct-21 @ 13:00 UTC

KEKN 210526Z 2106/2206 00000KT 1/4SM FG VV002
Conditions
Fog
Cloud Levels
  • Vertical visibility at 200' AGL

Oct-21@
13:00 UTC

Oct-21 @ 13:00 UTC

Oct-21@
15:00 UTC

Oct-21 @ 15:00 UTC

FM211300 VRB03KT 4SM BR SCT004

From

From Standard forecast or significant change

Wind
  • Variable at 3 KTS
Conditions
Mist
Cloud Levels
  • Scattered at 400' AGL

Oct-21@
15:00 UTC

Oct-21 @ 15:00 UTC

Oct-22@
04:00 UTC

Oct-22 @ 04:00 UTC

FM211500 16010KT P6SM SCT250

From

From Standard forecast or significant change

Wind
  • 160° at 10 KTS
Cloud Levels
  • Scattered at 25,000' AGL

Oct-22@
04:00 UTC

Oct-22 @ 04:00 UTC

Oct-22@
06:00 UTC

Oct-22 @ 06:00 UTC

FM220400 17007KT 5SM BR OVC035

From

From Standard forecast or significant change

Wind
  • 170° at 7 KTS
Conditions
Mist
Cloud Levels
  • Overcast at 3,500' AGL